Time;durP1;ratioP1;P1;durP2;ratioP2;P2;SDS_P1;SDS_P2;PMS_P1;PMS_P2;Temp;Humidity;BMP_temperature;BMP_pressure;BME280_temperature;BME280_humidity;BME280_pressure;Samples;Min_cycle;Max_cycle;Signal;HPM_P1;HPM_P2
2021/09/09 00:01:34;;;;;;;14.00;10.43;;;16.10;99.90;;;;;;5028783;28;20076;-67
2021/09/09 00:04:03;;;;;;;16.25;11.02;;;16.10;99.90;;;;;;5031176;28;20496;-67
2021/09/09 00:06:30;;;;;;;17.30;11.45;;;16.10;99.90;;;;;;5030853;28;20089;-67
2021/09/09 00:08:59;;;;;;;15.45;11.00;;;16.10;99.90;;;;;;5021197;28;20053;-67
2021/09/09 00:11:27;;;;;;;13.32;10.23;;;16.10;99.90;;;;;;5031491;28;20049;-67
2021/09/09 00:13:55;;;;;;;15.95;10.52;;;16.00;99.90;;;;;;5030839;28;20053;-67
2021/09/09 00:16:24;;;;;;;14.05;10.57;;;16.00;99.90;;;;;;5028532;28;20046;-67
2021/09/09 00:18:51;;;;;;;14.38;11.07;;;16.00;99.90;;;;;;5030214;28;20045;-67
2021/09/09 00:21:20;;;;;;;15.40;10.60;;;15.90;99.90;;;;;;5014920;28;20045;-67
2021/09/09 00:23:47;;;;;;;16.95;11.77;;;15.90;99.90;;;;;;5019426;28;20535;-67
2021/09/09 00:26:15;;;;;;;18.17;11.75;;;15.90;99.90;;;;;;5028465;28;20037;-67
2021/09/09 00:28:43;;;;;;;15.43;10.77;;;15.90;99.90;;;;;;5029754;28;20050;-67
2021/09/09 00:31:10;;;;;;;15.52;11.40;;;15.90;99.90;;;;;;5031056;28;20503;-67
2021/09/09 00:33:39;;;;;;;14.40;10.50;;;15.80;99.90;;;;;;5010821;28;20120;-67
2021/09/09 00:36:07;;;;;;;15.98;11.38;;;15.80;99.90;;;;;;5026748;28;20091;-67
2021/09/09 00:38:34;;;;;;;17.42;10.70;;;15.80;99.90;;;;;;5030319;28;20045;-67
2021/09/09 00:41:02;;;;;;;15.57;10.88;;;15.70;99.90;;;;;;5029488;28;20056;-67
2021/09/09 00:43:29;;;;;;;15.82;11.27;;;15.70;99.90;;;;;;5030212;28;20045;-67
2021/09/09 00:45:57;;;;;;;15.85;10.90;;;15.70;99.90;;;;;;5028831;28;20133;-67
2021/09/09 00:48:25;;;;;;;17.00;11.88;;;15.70;99.90;;;;;;5029453;28;20046;-67
2021/09/09 00:50:52;;;;;;;14.63;10.95;;;15.80;99.90;;;;;;5029605;28;20041;-67
2021/09/09 00:53:21;;;;;;;14.40;10.43;;;15.80;99.90;;;;;;5034559;28;20140;-67
2021/09/09 00:55:49;;;;;;;15.77;10.70;;;15.80;99.90;;;;;;5016505;28;20096;-67
2021/09/09 00:58:16;;;;;;;17.52;11.18;;;15.80;99.90;;;;;;5021122;28;20033;-67
2021/09/09 01:00:44;;;;;;;17.17;11.52;;;15.80;99.90;;;;;;5027844;28;20048;-67
2021/09/09 01:03:12;;;;;;;15.23;10.82;;;15.70;99.90;;;;;;5027047;28;20112;-67
2021/09/09 01:05:39;;;;;;;13.85;10.60;;;15.70;99.90;;;;;;5028457;28;20115;-67
2021/09/09 01:08:07;;;;;;;16.58;11.52;;;15.70;99.90;;;;;;5029402;28;20353;-67
2021/09/09 01:10:34;;;;;;;16.55;11.57;;;15.70;99.90;;;;;;5037574;28;20529;-67
2021/09/09 01:13:10;;;;;;;15.40;11.38;;;15.70;99.90;;;;;;5029390;28;20046;-67
2021/09/09 01:15:42;;;;;;;15.20;11.10;;;15.60;99.90;;;;;;5028513;28;20060;-67
2021/09/09 01:18:11;;;;;;;14.48;11.30;;;15.60;99.90;;;;;;5016861;28;20053;-67
2021/09/09 01:20:39;;;;;;;15.10;10.90;;;15.60;99.90;;;;;;5029169;28;20132;-67
2021/09/09 01:23:08;;;;;;;17.55;12.07;;;15.60;99.90;;;;;;5029713;28;20048;-67
2021/09/09 01:25:35;;;;;;;14.20;10.82;;;15.50;99.90;;;;;;5029430;28;20116;-67
2021/09/09 01:28:03;;;;;;;15.52;11.27;;;15.50;99.90;;;;;;5027276;28;20512;-67
2021/09/09 01:30:31;;;;;;;16.42;12.13;;;15.60;99.90;;;;;;5028948;28;20140;-67
2021/09/09 01:33:01;;;;;;;15.90;11.60;;;15.50;99.90;;;;;;5025885;28;20550;-67
2021/09/09 01:35:28;;;;;;;20.33;11.75;;;15.50;99.90;;;;;;5030811;28;20520;-66
2021/09/09 01:37:56;;;;;;;14.98;11.55;;;15.50;99.90;;;;;;5029331;28;20045;-66
2021/09/09 01:40:32;;;;;;;13.57;10.38;;;15.50;99.90;;;;;;5030779;28;20129;-67
2021/09/09 01:43:00;;;;;;;23.35;15.93;;;15.50;99.90;;;;;;5010414;28;20052;-66
2021/09/09 01:45:28;;;;;;;22.77;15.85;;;15.50;99.90;;;;;;5028433;28;20552;-67
2021/09/09 01:47:56;;;;;;;18.02;12.45;;;15.50;99.90;;;;;;5027797;28;20041;-66
2021/09/09 01:50:24;;;;;;;15.60;11.38;;;15.50;99.90;;;;;;5028790;28;20049;-67
2021/09/09 01:52:51;;;;;;;15.82;10.55;;;15.50;99.90;;;;;;5027397;28;20069;-67
2021/09/09 01:55:19;;;;;;;16.10;10.82;;;15.40;99.90;;;;;;5027552;28;20049;-67
2021/09/09 01:57:46;;;;;;;14.07;10.63;;;15.40;99.90;;;;;;5009882;28;20479;-67
2021/09/09 02:00:14;;;;;;;13.60;10.85;;;15.40;99.90;;;;;;5026820;28;20141;-67
2021/09/09 02:02:42;;;;;;;14.35;10.57;;;15.30;99.90;;;;;;5027212;28;20041;-67
2021/09/09 02:05:11;;;;;;;17.58;12.00;;;15.30;99.90;;;;;;5027404;28;20041;-67
2021/09/09 02:07:39;;;;;;;15.23;10.82;;;15.20;99.90;;;;;;5026571;28;20411;-67
2021/09/09 02:10:08;;;;;;;15.40;11.25;;;15.20;99.90;;;;;;5035433;28;20384;-67
2021/09/09 02:12:36;;;;;;;17.80;11.48;;;15.20;99.90;;;;;;5028490;28;20049;-67
2021/09/09 02:15:04;;;;;;;14.63;10.85;;;15.20;99.90;;;;;;5028946;28;20033;-67
2021/09/09 02:17:31;;;;;;;20.95;11.48;;;15.10;99.90;;;;;;5027742;28;20049;-67
2021/09/09 02:19:58;;;;;;;15.68;11.93;;;15.10;99.90;;;;;;5023805;28;20046;-67
2021/09/09 02:22:26;;;;;;;16.27;10.93;;;15.10;99.90;;;;;;5023349;28;20068;-67
2021/09/09 02:24:53;;;;;;;14.23;10.82;;;15.10;99.90;;;;;;5010845;28;20500;-67
2021/09/09 02:27:20;;;;;;;14.43;11.07;;;15.00;99.90;;;;;;5025591;28;20042;-67
2021/09/09 02:29:47;;;;;;;13.68;10.73;;;15.00;99.90;;;;;;5015612;28;20499;-67
2021/09/09 02:32:15;;;;;;;15.85;11.82;;;15.00;99.90;;;;;;5026499;28;20053;-67
2021/09/09 02:34:42;;;;;;;16.83;12.02;;;15.00;99.90;;;;;;5027180;28;20037;-67
2021/09/09 02:37:09;;;;;;;17.35;11.45;;;15.00;99.90;;;;;;5026377;28;20375;-67
2021/09/09 02:39:40;;;;;;;20.50;11.68;;;15.00;99.90;;;;;;5017806;28;20326;-67
2021/09/09 02:42:08;;;;;;;14.65;11.15;;;15.00;99.90;;;;;;5028401;28;20065;-67
2021/09/09 02:44:36;;;;;;;16.77;11.95;;;15.00;99.90;;;;;;5019916;28;20156;-67
2021/09/09 02:47:03;;;;;;;15.57;11.52;;;14.90;99.90;;;;;;5025300;28;20495;-67
2021/09/09 02:49:31;;;;;;;15.85;11.75;;;14.90;99.90;;;;;;5027291;28;20049;-67
2021/09/09 02:51:58;;;;;;;13.18;10.68;;;14.90;99.90;;;;;;5028172;28;20053;-67
2021/09/09 02:54:26;;;;;;;15.85;11.32;;;14.90;99.90;;;;;;5026001;28;20045;-67
2021/09/09 02:56:54;;;;;;;15.10;11.15;;;14.90;99.90;;;;;;5027596;28;20083;-67
2021/09/09 02:59:21;;;;;;;15.50;11.13;;;14.90;99.90;;;;;;5023933;28;20148;-67
2021/09/09 03:01:48;;;;;;;15.57;11.55;;;14.90;99.90;;;;;;5029243;28;20054;-69
2021/09/09 03:04:16;;;;;;;15.05;11.80;;;14.90;99.90;;;;;;5016909;28;20112;-67
2021/09/09 03:06:43;;;;;;;16.17;11.48;;;15.00;99.90;;;;;;5027609;28;20488;-67
2021/09/09 03:09:10;;;;;;;14.68;10.93;;;15.00;99.90;;;;;;5025713;28;20037;-67
2021/09/09 03:11:37;;;;;;;15.45;11.18;;;15.00;99.90;;;;;;5010298;28;20054;-67
2021/09/09 03:14:05;;;;;;;14.25;10.43;;;15.00;99.90;;;;;;5026813;28;20794;-67
2021/09/09 03:16:32;;;;;;;14.75;11.23;;;15.00;99.90;;;;;;5026552;28;20156;-66
2021/09/09 03:18:59;;;;;;;15.02;11.25;;;15.00;99.90;;;;;;5024593;28;20044;-67
2021/09/09 03:21:27;;;;;;;19.13;11.50;;;14.90;99.90;;;;;;5027266;28;20072;-67
2021/09/09 03:23:54;;;;;;;15.05;11.57;;;14.90;99.90;;;;;;5029766;28;20049;-67
2021/09/09 03:26:22;;;;;;;14.75;11.27;;;14.90;99.90;;;;;;5015304;28;20041;-67
2021/09/09 03:28:49;;;;;;;14.35;11.25;;;14.80;99.90;;;;;;5030915;28;20047;-67
2021/09/09 03:31:16;;;;;;;16.08;12.05;;;14.80;99.90;;;;;;5031053;28;20042;-67
2021/09/09 03:33:44;;;;;;;19.23;11.73;;;14.70;99.90;;;;;;5014008;28;20045;-67
2021/09/09 03:36:11;;;;;;;16.92;12.07;;;14.70;99.90;;;;;;5028368;28;20981;-67
2021/09/09 03:38:38;;;;;;;17.13;11.82;;;14.70;99.90;;;;;;5030267;28;20054;-67
2021/09/09 03:41:05;;;;;;;14.40;11.02;;;14.60;99.90;;;;;;5030705;28;20045;-67
2021/09/09 03:43:33;;;;;;;15.55;10.95;;;14.60;99.90;;;;;;5031209;28;20399;-67
2021/09/09 03:46:00;;;;;;;15.00;11.15;;;14.60;99.90;;;;;;5013391;28;20486;-67
2021/09/09 03:48:27;;;;;;;15.05;11.65;;;14.60;99.90;;;;;;5019296;28;20478;-67
2021/09/09 03:50:55;;;;;;;16.25;11.48;;;14.60;99.90;;;;;;5027207;28;20049;-67
2021/09/09 03:53:22;;;;;;;17.13;11.68;;;14.60;99.90;;;;;;5028508;28;20513;-67
2021/09/09 03:55:49;;;;;;;13.48;10.73;;;14.60;99.90;;;;;;5032250;28;20115;-68
2021/09/09 03:58:17;;;;;;;15.00;11.10;;;14.50;99.90;;;;;;5031696;28;20057;-67
2021/09/09 04:00:45;;;;;;;17.42;13.30;;;14.50;99.90;;;;;;5031539;28;20068;-67
2021/09/09 04:03:12;;;;;;;19.75;13.68;;;14.50;99.90;;;;;;5027117;28;20650;-67
2021/09/09 04:05:39;;;;;;;16.55;12.25;;;14.50;99.90;;;;;;5028787;28;20104;-67
2021/09/09 04:08:07;;;;;;;16.00;11.55;;;14.50;99.90;;;;;;5030933;28;20697;-67
2021/09/09 04:10:35;;;;;;;18.63;13.45;;;14.50;99.90;;;;;;5038968;28;20080;-67
2021/09/09 04:13:03;;;;;;;19.70;13.93;;;14.50;99.90;;;;;;5030665;28;20125;-66
2021/09/09 04:15:30;;;;;;;19.52;14.90;;;14.50;99.90;;;;;;5026417;28;20057;-67
2021/09/09 04:17:57;;;;;;;20.50;14.27;;;14.50;99.90;;;;;;5030407;28;20037;-67
2021/09/09 04:20:25;;;;;;;16.23;11.80;;;14.50;99.90;;;;;;5031427;28;20048;-67
2021/09/09 04:22:52;;;;;;;20.13;13.80;;;14.50;99.90;;;;;;5025496;28;20432;-67
2021/09/09 04:25:19;;;;;;;16.02;12.00;;;14.50;99.90;;;;;;5030385;28;20415;-67
2021/09/09 04:27:47;;;;;;;16.45;11.75;;;14.50;99.90;;;;;;5030068;28;20056;-67
2021/09/09 04:30:15;;;;;;;18.75;11.60;;;14.50;99.90;;;;;;5028984;28;20077;-67
2021/09/09 04:32:42;;;;;;;13.82;10.63;;;14.60;99.90;;;;;;5029438;28;20057;-67
2021/09/09 04:35:09;;;;;;;17.60;10.95;;;14.60;99.90;;;;;;5028655;28;20052;-67
2021/09/09 04:37:37;;;;;;;13.75;11.00;;;14.60;99.90;;;;;;5025911;28;20053;-68
2021/09/09 04:40:05;;;;;;;16.08;11.10;;;14.60;99.90;;;;;;5028663;28;20253;-67
2021/09/09 04:42:33;;;;;;;16.52;11.88;;;14.60;99.90;;;;;;5028667;28;20048;-67
2021/09/09 04:45:00;;;;;;;14.20;11.05;;;14.60;99.90;;;;;;5030098;28;20037;-68
2021/09/09 04:47:28;;;;;;;14.43;10.65;;;14.60;99.90;;;;;;5026664;28;20580;-68
2021/09/09 04:49:55;;;;;;;19.17;12.75;;;14.60;99.90;;;;;;5028813;28;20136;-68
2021/09/09 04:52:23;;;;;;;16.13;12.73;;;14.60;99.90;;;;;;5008276;28;20071;-68
2021/09/09 04:54:50;;;;;;;19.52;14.75;;;14.60;99.90;;;;;;5021283;28;20610;-67
2021/09/09 04:57:17;;;;;;;19.15;13.93;;;14.70;99.90;;;;;;5031250;28;20041;-68
2021/09/09 04:59:44;;;;;;;19.02;12.80;;;14.70;99.90;;;;;;5030117;28;20104;-67
2021/09/09 05:02:12;;;;;;;17.25;12.23;;;14.80;99.90;;;;;;5029973;28;20447;-67
2021/09/09 05:04:39;;;;;;;16.33;12.18;;;14.80;99.90;;;;;;5028219;28;20053;-67
2021/09/09 05:07:06;;;;;;;17.30;12.93;;;14.80;99.90;;;;;;5021102;28;20382;-67
2021/09/09 05:09:34;;;;;;;17.75;12.27;;;14.80;99.90;;;;;;5033782;28;20044;-68
2021/09/09 05:12:02;;;;;;;20.60;12.73;;;14.80;99.90;;;;;;5030331;28;20451;-68
2021/09/09 05:14:30;;;;;;;16.13;11.85;;;14.90;99.90;;;;;;4997599;28;20052;-68
2021/09/09 05:16:57;;;;;;;19.50;12.48;;;14.90;99.90;;;;;;5028255;28;20030;-68
2021/09/09 05:19:25;;;;;;;20.17;11.82;;;15.00;99.90;;;;;;5028265;28;20041;-67
2021/09/09 05:21:52;;;;;;;16.80;11.05;;;15.00;99.90;;;;;;5028160;28;20077;-67
2021/09/09 05:24:19;;;;;;;17.90;11.77;;;15.10;99.90;;;;;;5026452;28;20084;-67
2021/09/09 05:26:47;;;;;;;18.95;13.95;;;15.10;99.90;;;;;;5029138;28;20071;-67
2021/09/09 05:29:14;;;;;;;16.85;12.50;;;15.20;99.90;;;;;;5009803;28;20054;-67
2021/09/09 05:31:41;;;;;;;16.38;12.27;;;15.20;99.90;;;;;;5030654;28;20137;-67
2021/09/09 05:34:10;;;;;;;17.50;11.73;;;15.30;99.90;;;;;;5027913;28;20050;-67
2021/09/09 05:36:37;;;;;;;16.10;11.60;;;15.30;99.90;;;;;;5020087;28;20045;-67
2021/09/09 05:39:04;;;;;;;14.43;10.35;;;15.40;99.90;;;;;;5022044;28;20616;-68
2021/09/09 05:41:31;;;;;;;13.25;10.48;;;15.40;99.90;;;;;;5030370;28;20055;-67
2021/09/09 05:43:59;;;;;;;16.42;10.77;;;15.40;99.90;;;;;;5022509;28;20045;-67
2021/09/09 05:46:26;;;;;;;13.65;10.75;;;15.50;99.90;;;;;;5029283;28;20317;-67
2021/09/09 05:48:53;;;;;;;13.98;10.63;;;15.50;99.90;;;;;;5023773;28;20038;-67
2021/09/09 05:51:21;;;;;;;17.48;10.52;;;15.60;99.90;;;;;;5024170;28;20045;-67
2021/09/09 05:53:48;;;;;;;21.20;11.27;;;15.70;99.90;;;;;;5028268;28;20056;-67
2021/09/09 05:56:16;;;;;;;13.65;9.85;;;15.80;99.90;;;;;;5029544;28;20121;-67
2021/09/09 05:58:43;;;;;;;12.60;9.75;;;15.80;99.90;;;;;;5005561;28;20526;-67
2021/09/09 06:01:10;;;;;;;15.65;10.32;;;15.90;99.90;;;;;;5014341;28;20033;-67
2021/09/09 06:03:39;;;;;;;14.65;10.48;;;16.10;99.90;;;;;;5025739;28;20048;-67
2021/09/09 06:06:07;;;;;;;13.93;10.80;;;16.10;99.90;;;;;;5017442;28;20059;-67
2021/09/09 06:08:36;;;;;;;14.60;11.23;;;16.20;99.90;;;;;;5028540;28;20041;-68
2021/09/09 06:11:04;;;;;;;15.45;10.60;;;16.40;99.90;;;;;;5027867;28;20049;-68
2021/09/09 06:13:32;;;;;;;17.38;11.02;;;16.50;99.90;;;;;;5028210;28;20053;-67
2021/09/09 06:15:59;;;;;;;14.15;9.57;;;16.60;99.90;;;;;;5017373;28;20041;-67
2021/09/09 06:18:27;;;;;;;14.32;10.15;;;16.70;99.90;;;;;;5028622;28;20575;-67
2021/09/09 06:20:54;;;;;;;18.20;10.70;;;16.80;99.90;;;;;;5027602;28;20056;-68
2021/09/09 06:23:22;;;;;;;18.55;9.38;;;17.00;99.90;;;;;;5029062;28;20072;-68
2021/09/09 06:25:52;;;;;;;15.07;9.88;;;17.10;99.90;;;;;;5010405;28;20045;-68
2021/09/09 06:28:19;;;;;;;17.23;10.48;;;17.20;99.90;;;;;;5025936;28;20132;-68
2021/09/09 06:30:46;;;;;;;15.05;9.45;;;17.30;99.90;;;;;;5021684;28;20133;-68
2021/09/09 06:33:14;;;;;;;13.35;9.35;;;17.30;99.90;;;;;;5027864;28;20056;-68
2021/09/09 06:35:43;;;;;;;14.13;9.18;;;17.40;99.90;;;;;;5027311;28;20049;-68
2021/09/09 06:38:10;;;;;;;14.13;8.85;;;17.40;99.90;;;;;;5011692;28;20045;-68
2021/09/09 06:40:37;;;;;;;12.02;8.40;;;17.50;99.90;;;;;;5026211;28;20045;-68
2021/09/09 06:43:04;;;;;;;13.18;8.27;;;17.60;99.90;;;;;;5028453;28;20041;-68
2021/09/09 06:45:32;;;;;;;14.23;9.25;;;17.70;99.90;;;;;;5028635;28;20037;-68
2021/09/09 06:47:59;;;;;;;14.85;9.75;;;17.80;99.90;;;;;;5028258;28;20183;-68
2021/09/09 06:50:26;;;;;;;17.60;10.75;;;17.90;99.90;;;;;;5027637;28;20053;-68
2021/09/09 06:52:54;;;;;;;15.65;9.45;;;17.90;99.90;;;;;;5025515;28;20077;-68
2021/09/09 06:55:21;;;;;;;15.35;9.77;;;18.00;99.90;;;;;;5025512;28;20057;-68
2021/09/09 06:57:48;;;;;;;15.95;11.93;;;18.00;99.90;;;;;;5026647;28;20551;-68
2021/09/09 07:00:16;;;;;;;13.50;9.63;;;18.10;99.90;;;;;;5025281;28;20053;-68
2021/09/09 07:02:43;;;;;;;12.82;10.30;;;18.10;99.90;;;;;;5024294;28;20117;-68
2021/09/09 07:05:13;;;;;;;14.70;9.27;;;18.20;99.90;;;;;;5026785;28;20042;-68
2021/09/09 07:07:42;;;;;;;17.23;10.48;;;18.20;99.90;;;;;;5027875;28;20041;-68
2021/09/09 07:10:12;;;;;;;17.27;9.70;;;18.30;99.90;;;;;;5034375;28;20045;-68
2021/09/09 07:12:43;;;;;;;13.18;9.35;;;18.30;99.90;;;;;;5027975;28;20045;-68
2021/09/09 07:15:11;;;;;;;12.77;9.05;;;18.40;99.90;;;;;;5026059;28;20054;-68
2021/09/09 07:17:48;;;;;;;18.55;9.35;;;18.50;99.90;;;;;;5026426;28;20053;-68
2021/09/09 07:20:16;;;;;;;12.52;8.88;;;18.50;99.90;;;;;;5027119;28;20055;-68
2021/09/09 07:22:43;;;;;;;33.67;10.65;;;18.60;99.90;;;;;;5028340;28;20124;-68
2021/09/09 07:25:10;;;;;;;16.27;9.20;;;18.70;99.90;;;;;;5026096;28;20041;-68
2021/09/09 07:27:38;;;;;;;12.73;8.85;;;18.80;99.90;;;;;;5027016;28;20095;-68
2021/09/09 07:30:06;;;;;;;12.10;8.52;;;18.90;99.90;;;;;;5026234;28;20099;-68
2021/09/09 07:32:35;;;;;;;13.30;8.23;;;19.00;99.90;;;;;;5026088;28;20492;-67
2021/09/09 07:35:04;;;;;;;11.80;8.30;;;19.20;99.90;;;;;;5019923;28;20048;-68
2021/09/09 07:37:32;;;;;;;14.88;10.85;;;19.30;99.90;;;;;;4996784;28;20451;-67
2021/09/09 07:39:59;;;;;;;12.80;9.75;;;19.40;99.90;;;;;;5024907;28;20095;-67
2021/09/09 07:42:27;;;;;;;13.23;8.25;;;19.60;99.90;;;;;;5021460;28;20049;-67
2021/09/09 07:44:54;;;;;;;15.52;8.43;;;19.70;99.90;;;;;;5024525;28;20620;-67
2021/09/09 07:47:24;;;;;;;12.55;8.00;;;19.80;99.90;;;;;;5023353;28;20049;-67
2021/09/09 07:49:52;;;;;;;11.40;8.00;;;19.90;99.90;;;;;;5025770;28;20452;-67
2021/09/09 07:52:19;;;;;;;12.52;8.32;;;20.00;99.90;;;;;;5022761;28;20131;-68
2021/09/09 07:54:46;;;;;;;11.70;8.25;;;20.20;99.90;;;;;;5005968;28;20164;-68
2021/09/09 07:57:13;;;;;;;11.68;7.80;;;20.40;99.90;;;;;;5027330;28;20416;-68
2021/09/09 07:59:41;;;;;;;15.32;8.82;;;20.50;99.90;;;;;;5026930;28;20046;-68
2021/09/09 08:02:08;;;;;;;10.80;7.38;;;20.70;99.90;;;;;;5026886;28;20041;-68
2021/09/09 08:04:36;;;;;;;13.10;8.32;;;20.80;99.90;;;;;;5027368;28;20412;-68
2021/09/09 08:07:03;;;;;;;13.65;8.45;;;21.00;99.90;;;;;;5026504;28;20073;-68
2021/09/09 08:09:30;;;;;;;10.65;8.00;;;21.10;99.90;;;;;;5019195;28;20484;-68
2021/09/09 08:11:58;;;;;;;11.15;8.40;;;21.20;99.90;;;;;;5030741;28;20461;-68
2021/09/09 08:14:25;;;;;;;15.68;10.13;;;21.40;99.90;;;;;;5029297;28;20064;-68
2021/09/09 08:16:52;;;;;;;14.02;8.52;;;21.50;99.90;;;;;;5031911;28;20131;-67
2021/09/09 08:19:20;;;;;;;17.13;11.48;;;21.60;99.90;;;;;;5028497;28;20064;-68
2021/09/09 08:21:47;;;;;;;22.90;12.85;;;21.70;99.90;;;;;;5030594;28;20380;-68
2021/09/09 08:24:14;;;;;;;21.67;13.07;;;21.70;99.90;;;;;;5030662;28;20056;-68
2021/09/09 08:26:41;;;;;;;12.52;8.30;;;21.80;99.90;;;;;;5030683;28;20042;-68
2021/09/09 08:29:09;;;;;;;14.80;8.73;;;22.00;99.90;;;;;;5016151;28;20112;-67
2021/09/09 08:31:36;;;;;;;12.02;8.13;;;22.10;99.90;;;;;;5031325;28;20053;-67
2021/09/09 08:34:05;;;;;;;14.45;10.07;;;22.20;99.90;;;;;;5030827;28;20053;-68
2021/09/09 08:36:32;;;;;;;15.52;9.07;;;22.30;99.90;;;;;;5030318;28;20045;-67
2021/09/09 08:39:00;;;;;;;11.10;8.27;;;22.40;99.90;;;;;;5029018;28;20041;-68
2021/09/09 08:41:28;;;;;;;12.23;9.07;;;22.50;99.90;;;;;;5028921;28;20407;-68
2021/09/09 08:43:55;;;;;;;13.73;8.23;;;22.70;99.90;;;;;;5030181;28;20034;-68
2021/09/09 08:46:23;;;;;;;13.05;8.57;;;22.80;99.90;;;;;;5023519;28;20100;-68
2021/09/09 08:48:55;;;;;;;10.98;8.27;;;23.00;99.90;;;;;;5029426;28;20068;-68
2021/09/09 08:51:22;;;;;;;;;;;23.20;99.90;;;;;;5028485;28;20063;-68
2021/09/09 08:53:51;;;;;;;12.65;8.75;;;23.30;99.90;;;;;;5030356;28;19928;-68
2021/09/09 08:56:18;;;;;;;13.05;9.63;;;23.40;99.90;;;;;;5029394;28;20053;-68
2021/09/09 08:58:45;;;;;;;14.65;8.88;;;23.50;99.90;;;;;;5021225;28;20054;-68
2021/09/09 09:01:14;;;;;;;15.73;8.48;;;23.60;99.90;;;;;;5029995;28;20125;-67
2021/09/09 09:04:06;;;;;;;12.57;8.05;;;23.60;99.90;;;;;;5029112;28;20053;-68
2021/09/09 09:06:36;;;;;;;12.63;8.35;;;23.60;99.90;;;;;;5019739;28;20526;-68
2021/09/09 09:09:11;;;;;;;13.10;8.20;;;23.70;99.90;;;;;;5030008;28;20115;-67
2021/09/09 09:11:44;;;;;;;15.77;8.85;;;23.80;99.90;;;;;;5028922;28;20507;-68
2021/09/09 09:14:21;;;;;;;12.18;8.45;;;23.70;99.90;;;;;;5028516;28;20553;-68
2021/09/09 09:16:52;;;;;;;13.85;9.13;;;23.80;99.90;;;;;;5029238;28;20539;-67
2021/09/09 09:19:22;;;;;;;14.95;10.00;;;23.90;99.90;;;;;;5016522;28;20054;-68
2021/09/09 09:21:59;;;;;;;14.82;8.77;;;24.00;99.90;;;;;;5029708;28;20045;-68
2021/09/09 09:24:32;;;;;;;12.52;9.27;;;24.10;99.90;;;;;;5030415;28;20053;-67
2021/09/09 09:27:09;;;;;;;14.02;8.98;;;24.20;99.90;;;;;;5029387;28;20046;-68
2021/09/09 09:29:37;;;;;;;11.75;9.05;;;24.10;99.90;;;;;;5027690;28;20522;-67
2021/09/09 09:32:11;;;;;;;12.88;9.27;;;24.20;99.90;;;;;;5020730;28;20579;-67
2021/09/09 09:34:40;;;;;;;13.05;9.07;;;24.30;99.90;;;;;;5029627;28;20045;-67
2021/09/09 09:37:08;;;;;;;15.82;11.18;;;24.40;99.90;;;;;;5030546;28;20137;-67
2021/09/09 09:39:36;;;;;;;27.77;17.05;;;24.50;99.90;;;;;;5027979;28;20083;-68
2021/09/09 09:42:06;;;;;;;15.95;9.75;;;24.60;99.90;;;;;;5027492;28;20041;-68
2021/09/09 09:44:40;;;;;;;11.00;8.07;;;24.70;99.90;;;;;;5028607;28;20069;-67
2021/09/09 09:47:09;;;;;;;13.77;9.48;;;24.80;99.90;;;;;;5029717;28;20157;-68
2021/09/09 09:49:44;;;;;;;15.80;11.13;;;25.00;99.90;;;;;;5028086;28;20069;-67
2021/09/09 09:52:33;;;;;;;15.43;8.85;;;25.30;99.90;;;;;;5028968;28;20092;-68
2021/09/09 09:55:03;;;;;;;12.27;8.80;;;25.50;99.90;;;;;;5024697;28;20092;-68
2021/09/09 09:57:33;;;;;;;13.43;9.50;;;25.70;99.90;;;;;;5016901;28;20053;-68
2021/09/09 10:00:01;;;;;;;13.27;10.70;;;25.80;99.90;;;;;;5026056;28;20053;-68
2021/09/09 10:02:38;;;;;;;11.30;8.40;;;26.10;99.90;;;;;;5026380;28;20045;-68
2021/09/09 10:05:07;;;;;;;13.48;9.02;;;26.20;99.90;;;;;;5029014;28;20046;-68
2021/09/09 10:07:35;;;;;;;13.65;8.60;;;26.40;99.90;;;;;;5027742;28;20467;-68
2021/09/09 10:10:03;;;;;;;13.30;9.30;;;26.40;99.90;;;;;;5036278;28;20047;-68
2021/09/09 10:12:32;;;;;;;12.52;8.93;;;26.40;99.90;;;;;;5031715;28;20136;-68
2021/09/09 10:15:01;;;;;;;10.55;8.60;;;26.50;99.90;;;;;;5022765;28;20053;-68
2021/09/09 10:17:28;;;;;;;10.77;7.88;;;26.80;99.90;;;;;;5029167;28;20049;-68
2021/09/09 10:20:33;;;;;;;13.00;8.65;;;26.80;99.90;;;;;;5028203;28;20079;-68
2021/09/09 10:23:10;;;;;;;13.75;9.43;;;26.80;99.90;;;;;;5016698;28;20077;-67
2021/09/09 10:25:57;;;;;;;12.75;9.15;;;26.90;99.90;;;;;;5027189;28;20042;-67
2021/09/09 10:28:37;;;;;;;12.23;8.27;;;27.00;99.90;;;;;;5016339;28;20137;-68
2021/09/09 10:31:06;;;;;;;12.70;8.45;;;27.20;99.90;;;;;;5026371;28;20128;-68
2021/09/09 10:33:38;;;;;;;14.30;8.20;;;27.10;99.90;;;;;;5027944;28;20181;-68
2021/09/09 10:36:42;;;;;;;11.82;8.85;;;27.00;99.90;;;;;;5028300;28;20079;-68
2021/09/09 10:39:20;;;;;;;15.60;9.10;;;27.20;99.90;;;;;;5021870;28;20052;-68
2021/09/09 10:41:48;;;;;;;12.50;8.70;;;27.40;99.90;;;;;;5026386;28;20040;-67
2021/09/09 10:44:16;;;;;;;15.50;8.90;;;27.60;99.90;;;;;;5029121;28;20029;-68
2021/09/09 10:46:47;;;;;;;12.82;8.63;;;27.90;99.90;;;;;;5025406;28;20069;-68
2021/09/09 10:49:20;;;;;;;13.32;8.32;;;27.90;99.90;;;;;;5020065;28;20049;-67
2021/09/09 10:52:04;;;;;;;13.60;9.35;;;27.80;99.90;;;;;;5027473;28;20049;-68
2021/09/09 10:55:12;;;;;;;14.35;8.23;;;28.00;99.90;;;;;;5025900;28;20069;-68
2021/09/09 10:57:40;;;;;;;11.38;7.90;;;28.20;99.90;;;;;;5027715;28;20124;-68
2021/09/09 11:00:08;;;;;;;14.00;8.73;;;28.40;99.90;;;;;;5026851;28;20049;-67
2021/09/09 11:02:44;;;;;;;12.05;8.73;;;28.60;99.90;;;;;;5016898;28;20053;-67
2021/09/09 11:05:14;;;;;;;11.07;8.10;;;28.70;99.90;;;;;;5028765;28;20037;-68
2021/09/09 11:07:42;;;;;;;12.52;9.20;;;29.10;99.90;;;;;;5027025;28;20059;-68
2021/09/09 11:10:11;;;;;;;14.00;9.55;;;29.50;99.90;;;;;;5031523;28;20465;-68
2021/09/09 11:12:58;;;;;;;11.52;8.10;;;29.80;99.90;;;;;;5024275;28;20048;-68
2021/09/09 11:15:32;;;;;;;11.82;8.90;;;29.90;99.90;;;;;;5027107;28;20092;-68
2021/09/09 11:18:01;;;;;;;13.45;8.85;;;30.20;99.90;;;;;;5021495;28;20053;-68
2021/09/09 11:20:30;;;;;;;14.32;8.50;;;30.30;99.90;;;;;;5026603;28;20163;-68
2021/09/09 11:23:08;;;;;;;14.20;8.35;;;29.90;99.90;;;;;;5030691;28;20038;-68
2021/09/09 11:25:36;;;;;;;14.63;9.68;;;29.80;99.90;;;;;;5029500;28;20460;-68
2021/09/09 11:28:15;;;;;;;11.40;8.23;;;30.20;99.90;;;;;;5028556;28;20048;-68
2021/09/09 11:30:43;;;;;;;10.25;7.65;;;30.60;99.90;;;;;;5028315;28;20060;-68
2021/09/09 11:33:13;;;;;;;11.80;9.23;;;31.00;99.90;;;;;;5027035;28;20539;-68
2021/09/09 11:36:00;;;;;;;11.57;8.27;;;31.00;99.90;;;;;;5028964;28;20045;-68
2021/09/09 11:38:37;;;;;;;10.93;8.43;;;31.30;99.90;;;;;;5024805;28;20175;-68
2021/09/09 11:41:17;;;;;;;11.88;8.30;;;31.50;99.90;;;;;;5021888;28;20517;-68
2021/09/09 11:43:53;;;;;;;10.60;7.68;;;31.70;99.90;;;;;;5029530;28;20148;-68
2021/09/09 11:46:29;;;;;;;12.77;8.52;;;32.10;99.90;;;;;;5031136;28;20570;-68
2021/09/09 11:49:11;;;;;;;10.00;7.93;;;32.50;99.90;;;;;;5029162;28;20041;-68
2021/09/09 11:51:41;;;;;;;10.13;7.18;;;32.40;99.90;;;;;;5030039;28;20068;-68
2021/09/09 11:54:25;;;;;;;12.45;7.57;;;32.20;99.90;;;;;;5028541;28;20470;-69
2021/09/09 11:57:15;;;;;;;9.65;7.88;;;32.60;99.90;;;;;;5025771;28;20048;-68
2021/09/09 11:59:57;;;;;;;12.57;8.45;;;32.90;99.90;;;;;;5031203;28;20411;-68
2021/09/09 12:02:28;;;;;;;8.50;7.05;;;33.50;99.90;;;;;;5031667;28;20124;-69
2021/09/09 12:04:57;;;;;;;15.18;7.22;;;33.90;99.90;;;;;;5030495;28;20037;-69
2021/09/09 12:07:30;;;;;;;10.32;7.88;;;33.90;99.90;;;;;;5030049;28;20056;-69
2021/09/09 12:09:59;;;;;;;9.38;7.07;;;33.60;99.90;;;;;;5035414;28;20491;-69
2021/09/09 12:12:30;;;;;;;10.70;7.20;;;33.90;99.90;;;;;;5043692;28;20462;-67
2021/09/09 12:15:03;;;;;;;;;;;34.00;99.90;;;;;;5031689;28;20060;-69
2021/09/09 12:17:31;;;;;;;11.88;7.32;;;34.10;99.90;;;;;;5030777;28;19936;-68
2021/09/09 12:20:21;;;;;;;12.43;8.10;;;34.10;99.90;;;;;;5031407;28;20056;-68
2021/09/09 12:23:00;;;;;;;10.93;7.68;;;33.80;99.90;;;;;;5018263;28;20392;-69
2021/09/09 12:25:27;;;;;;;9.63;7.50;;;33.40;99.90;;;;;;5031660;28;20591;-68
2021/09/09 12:28:16;;;;;;;13.88;7.47;;;33.90;99.90;;;;;;5027945;28;20087;-70
2021/09/09 12:30:52;;;;;;;12.57;7.28;;;34.00;99.30;;;;;;5030148;28;20037;-67
2021/09/09 12:33:24;;;;;;;8.90;7.30;;;34.10;98.70;;;;;;5012078;28;20053;-68
2021/09/09 12:36:08;;;;;;;11.30;6.90;;;34.30;98.70;;;;;;5023929;28;20423;-68
2021/09/09 12:38:44;;;;;;;10.73;6.82;;;35.00;98.00;;;;;;5023637;28;20049;-67
2021/09/09 12:41:18;;;;;;;12.13;7.35;;;35.30;96.70;;;;;;5028995;28;20470;-67
2021/09/09 12:43:54;;;;;;;10.05;6.90;;;34.30;96.80;;;;;;5028611;28;20045;-67
2021/09/09 12:46:25;;;;;;;8.57;6.90;;;33.60;97.40;;;;;;5029756;28;20132;-68